Time;durP1;ratioP1;P1;durP2;ratioP2;P2;SDS_P1;SDS_P2;PMS_P1;PMS_P2;Temp;Humidity;BMP_temperature;BMP_pressure;BME280_temperature;BME280_humidity;BME280_pressure;Samples;Min_cycle;Max_cycle;Signal;HPM_P1;HPM_P2
2022/06/20 00:01:28;;;;;;;4.43;0.30;;;;;;;16.16;68.42;101168.03;7389917;19;20010;-78
2022/06/20 00:03:55;;;;;;;4.03;0.50;;;;;;;16.16;68.90;101168.03;7389607;19;20007;-79
2022/06/20 00:06:23;;;;;;;5.32;0.40;;;;;;;16.19;68.72;101158.91;7386277;19;20397;-79
2022/06/20 00:08:51;;;;;;;5.80;0.40;;;;;;;16.24;68.05;101175.94;7388901;19;20014;-78
2022/06/20 00:11:22;;;;;;;7.43;0.60;;;;;;;16.20;68.16;101171.97;7387548;19;20360;-78
2022/06/20 00:13:53;;;;;;;5.80;0.38;;;;;;;16.16;67.74;101170.69;7389231;19;20087;-78
2022/06/20 00:16:21;;;;;;;7.47;0.75;;;;;;;16.14;67.63;101182.50;7390758;19;20006;-78
2022/06/20 00:18:48;;;;;;;6.38;0.52;;;;;;;16.13;67.87;101199.44;7384213;19;20013;-80
2022/06/20 00:21:19;;;;;;;2.40;0.40;;;;;;;16.19;67.81;101196.06;7388413;19;20078;-77
2022/06/20 00:23:46;;;;;;;4.78;0.40;;;;;;;16.19;67.94;101180.16;7388814;19;20021;-79
2022/06/20 00:26:14;;;;;;;8.57;0.45;;;;;;;16.15;68.32;101174.34;7390933;19;20394;-78
2022/06/20 00:28:41;;;;;;;4.00;0.30;;;;;;;16.12;68.40;101160.63;7390060;19;20018;-78
2022/06/20 00:31:09;;;;;;;3.35;0.40;;;;;;;16.12;68.84;101174.72;7388808;19;20030;-79
2022/06/20 00:33:36;;;;;;;3.88;0.70;;;;;;;16.08;69.07;101168.13;7389067;19;19999;-79
2022/06/20 00:36:03;;;;;;;3.17;0.40;;;;;;;16.07;69.34;101170.94;7387803;19;20025;-78
2022/06/20 00:38:31;;;;;;;5.97;0.63;;;;;;;16.06;69.26;101164.81;7385508;19;20790;-78
2022/06/20 00:41:04;;;;;;;4.82;0.60;;;;;;;16.00;69.66;101178.00;7389769;19;20031;-79
2022/06/20 00:43:33;;;;;;;;;;;;;;;15.98;70.33;101188.78;7387658;19;20010;-77
2022/06/20 00:46:07;;;;;;;5.07;0.40;;;;;;;15.93;70.44;101196.47;7386775;19;20248;-78
2022/06/20 00:48:44;;;;;;;4.57;0.40;;;;;;;15.96;70.25;101209.38;7387776;19;20102;-78
2022/06/20 00:51:25;;;;;;;6.88;0.50;;;;;;;15.92;69.84;101204.59;7384046;19;20022;-78
2022/06/20 00:54:08;;;;;;;3.92;0.57;;;;;;;15.89;70.11;101200.47;7388019;19;20115;-77
2022/06/20 00:57:01;;;;;;;4.85;0.88;;;;;;;15.83;69.51;101196.72;7387601;19;20023;-77
2022/06/20 00:59:35;;;;;;;4.77;0.40;;;;;;;15.82;69.82;101196.88;7385109;19;20021;-78
2022/06/20 01:02:06;;;;;;;4.10;0.40;;;;;;;15.79;70.46;101194.59;7386351;19;20058;-78
2022/06/20 01:04:39;;;;;;;6.25;0.60;;;;;;;15.80;70.04;101199.69;7384906;19;20010;-78
2022/06/20 01:07:12;;;;;;;4.15;0.52;;;;;;;15.83;69.76;101187.91;7385234;19;20010;-78
2022/06/20 01:09:45;;;;;;;4.45;0.40;;;;;;;15.83;69.41;101191.41;7383681;19;20345;-79
2022/06/20 01:12:20;;;;;;;2.72;0.40;;;;;;;15.78;69.47;101196.41;7385712;19;20015;-78
2022/06/20 01:14:47;;;;;;;6.07;1.00;;;;;;;15.77;69.38;101197.41;7387689;19;20274;-78
2022/06/20 01:17:36;;;;;;;3.60;0.63;;;;;;;15.74;69.30;101191.66;7388574;19;20014;-78
2022/06/20 01:20:18;;;;;;;3.42;0.40;;;;;;;15.68;69.37;101197.66;7384163;19;20075;-79
2022/06/20 01:22:49;;;;;;;8.38;0.40;;;;;;;15.61;69.49;101196.69;7386043;19;20401;-79
2022/06/20 01:25:40;;;;;;;4.43;0.30;;;;;;;15.59;69.77;101210.16;7388598;19;20010;-79
2022/06/20 01:28:12;;;;;;;1.02;0.20;;;;;;;15.57;69.97;101213.97;7386482;19;20039;-79
2022/06/20 01:30:42;;;;;;;7.60;0.30;;;;;;;15.60;69.91;101226.88;7384590;19;20074;-79
2022/06/20 01:33:11;;;;;;;3.80;0.32;;;;;;;15.59;69.96;101234.03;7384637;19;20016;-78
2022/06/20 01:38:27;;;;;;;4.85;0.38;;;;;;;15.64;69.76;101252.91;7384328;19;20157;-79
2022/06/20 01:43:41;;;;;;;4.20;0.57;;;;;;;15.64;69.93;101247.59;7385837;19;20014;-79
2022/06/20 01:46:10;;;;;;;4.57;0.30;;;;;;;15.64;70.15;101254.72;7385908;19;20014;-78
2022/06/20 01:48:43;;;;;;;5.95;0.40;;;;;;;15.62;70.31;101264.69;7385895;19;20361;-79
2022/06/20 01:51:19;;;;;;;2.85;0.30;;;;;;;15.60;70.41;101264.84;7383903;19;20135;-78
2022/06/20 01:53:48;;;;;;;6.60;0.40;;;;;;;15.58;70.47;101264.22;7384177;19;20354;-78
2022/06/20 01:56:17;;;;;;;3.47;0.38;;;;;;;15.58;70.85;101264.22;7383799;19;20456;-78
2022/06/20 01:58:51;;;;;;;2.40;0.30;;;;;;;15.56;70.98;101276.81;7382206;19;20013;-78
2022/06/20 02:01:18;;;;;;;6.00;0.80;;;;;;;15.61;70.45;101292.19;7387387;19;20007;-78
2022/06/20 02:03:47;;;;;;;5.07;0.30;;;;;;;15.59;70.86;101302.19;7386117;19;20014;-79
2022/06/20 02:06:18;;;;;;;2.95;0.38;;;;;;;15.55;70.93;101298.19;7384828;19;20014;-79
2022/06/20 02:08:50;;;;;;;2.55;0.30;;;;;;;15.57;71.02;101296.22;7385662;19;20515;-77
2022/06/20 02:11:26;;;;;;;5.27;0.40;;;;;;;15.55;71.47;101296.38;7385119;19;20074;-77
2022/06/20 02:13:58;;;;;;;4.15;0.40;;;;;;;15.55;70.90;101299.03;7386123;19;20819;-77
2022/06/20 02:16:28;;;;;;;5.00;0.50;;;;;;;15.53;71.03;101302.88;7393745;19;20010;-79
2022/06/20 02:19:02;;;;;;;4.18;0.30;;;;;;;15.56;70.85;101302.50;7391555;19;20006;-79
2022/06/20 02:21:31;;;;;;;6.65;0.30;;;;;;;15.55;70.96;101309.63;7392680;19;20416;-77
2022/06/20 02:24:16;;;;;;;8.30;1.38;;;;;;;15.57;71.20;101310.31;7387194;19;20147;-77
2022/06/20 02:26:47;;;;;;;2.78;0.40;;;;;;;15.55;71.38;101314.09;7392915;19;20415;-79
2022/06/20 02:29:24;;;;;;;3.50;0.40;;;;;;;15.52;71.35;101314.47;7391564;19;20090;-80
2022/06/20 02:31:56;;;;;;;6.97;0.68;;;;;;;15.53;71.59;101318.78;7392531;19;20101;-77
2022/06/20 02:34:26;;;;;;;3.33;0.35;;;;;;;15.56;71.19;101323.72;7391864;19;20014;-78
2022/06/20 02:36:54;;;;;;;3.67;0.40;;;;;;;15.36;71.71;101323.28;7390937;19;20011;-79
2022/06/20 02:39:23;;;;;;;5.45;0.95;;;;;;;15.35;72.02;101322.44;7390150;19;20014;-79
2022/06/20 02:41:55;;;;;;;4.25;0.43;;;;;;;15.32;72.21;101325.47;7392926;19;20008;-79
2022/06/20 02:44:24;;;;;;;3.23;0.40;;;;;;;15.30;72.45;101321.31;7390754;19;20013;-79
2022/06/20 02:46:53;;;;;;;3.15;0.30;;;;;;;15.26;72.15;101320.84;7391839;19;20126;-79
2022/06/20 02:49:25;;;;;;;5.15;0.30;;;;;;;15.24;72.52;101322.00;7390502;19;20014;-78
2022/06/20 02:51:55;;;;;;;6.40;2.30;;;;;;;15.26;72.67;101317.34;7390019;19;20033;-78
2022/06/20 02:54:27;;;;;;;6.60;0.30;;;;;;;15.29;73.20;101317.00;7392934;19;20015;-79
2022/06/20 02:57:01;;;;;;;3.28;0.40;;;;;;;15.31;72.39;101313.19;7389580;19;20018;-78
2022/06/20 02:59:34;;;;;;;4.32;0.40;;;;;;;15.39;71.93;101320.28;7390320;19;20464;-78
2022/06/20 03:02:10;;;;;;;6.80;0.35;;;;;;;15.43;71.43;101310.19;7389547;19;20090;-77
2022/06/20 03:04:41;;;;;;;5.43;0.30;;;;;;;15.39;71.61;101312.31;7389762;19;20393;-78
2022/06/20 03:07:14;;;;;;;5.25;1.30;;;;;;;15.38;71.69;101316.00;7390272;19;20003;-78
2022/06/20 03:09:45;;;;;;;2.15;0.50;;;;;;;15.35;72.05;101317.16;7389912;19;20019;-78
2022/06/20 03:12:12;;;;;;;3.40;0.45;;;;;;;15.34;70.81;101317.31;7390185;19;20077;-78
2022/06/20 03:14:45;;;;;;;3.97;0.30;;;;;;;15.30;70.87;101306.22;7391152;19;20028;-78
2022/06/20 03:17:19;;;;;;;4.57;0.30;;;;;;;15.26;71.75;101306.75;7391995;19;20006;-78
2022/06/20 03:20:07;;;;;;;3.58;0.30;;;;;;;15.22;71.01;101308.09;7389619;19;20120;-78
2022/06/20 03:22:40;;;;;;;4.68;0.38;;;;;;;15.21;71.32;101307.28;7386861;19;20057;-78
2022/06/20 03:25:12;;;;;;;3.15;0.40;;;;;;;15.15;71.76;101307.94;7389377;19;20022;-78
2022/06/20 03:27:40;;;;;;;6.22;0.40;;;;;;;15.13;71.53;101307.31;7390302;19;20452;-78
2022/06/20 03:30:22;;;;;;;3.50;0.35;;;;;;;15.10;71.72;101304.97;7389900;19;20014;-78
2022/06/20 03:32:49;;;;;;;3.25;0.32;;;;;;;15.07;71.64;101313.28;7386199;19;20019;-78
2022/06/20 03:35:17;;;;;;;4.40;0.47;;;;;;;15.06;71.81;101313.44;7390315;19;20090;-78
2022/06/20 03:37:44;;;;;;;5.35;0.50;;;;;;;15.06;71.93;101321.41;7387618;19;20014;-79
2022/06/20 03:40:17;;;;;;;4.38;0.55;;;;;;;15.06;72.17;101322.22;7389401;19;20074;-77
2022/06/20 03:42:45;;;;;;;3.42;0.22;;;;;;;15.07;72.23;101320.41;7389077;19;20481;-78
2022/06/20 03:45:14;;;;;;;2.72;0.60;;;;;;;15.10;71.75;101334.13;7389431;19;20021;-79
2022/06/20 03:47:54;;;;;;;7.68;0.65;;;;;;;15.07;71.70;101344.25;7387626;19;20010;-78
2022/06/20 03:50:30;;;;;;;3.83;0.40;;;;;;;15.07;72.01;101355.69;7390123;19;20472;-78
2022/06/20 03:53:06;;;;;;;3.72;0.47;;;;;;;15.05;72.05;101360.31;7386457;19;20014;-78
2022/06/20 03:55:40;;;;;;;7.10;0.55;;;;;;;15.07;72.37;101365.47;7390159;19;20010;-78
2022/06/20 03:58:17;;;;;;;7.47;0.60;;;;;;;15.06;72.21;101369.09;7389277;19;20014;-77
2022/06/20 04:01:01;;;;;;;5.38;0.50;;;;;;;15.03;72.65;101362.34;7388438;19;20014;-78
2022/06/20 04:03:33;;;;;;;2.70;0.40;;;;;;;15.05;72.64;101362.13;7388262;19;20017;-79
2022/06/20 04:06:06;;;;;;;4.72;0.38;;;;;;;15.05;72.25;101365.63;7387253;19;20476;-78
2022/06/20 04:11:36;;;;;;;2.97;0.43;;;;;;;15.02;73.42;101355.38;7388885;19;20375;-79
2022/06/20 04:14:25;;;;;;;2.00;0.50;;;;;;;14.97;72.25;101358.53;7386983;19;20046;-78
2022/06/20 04:16:59;;;;;;;3.58;0.22;;;;;;;14.95;72.92;101365.81;7390467;19;20635;-78
2022/06/20 04:19:36;;;;;;;14.50;2.35;;;;;;;14.96;72.56;101361.34;7387166;19;20007;-79
2022/06/20 04:22:17;;;;;;;6.03;0.70;;;;;;;14.96;72.64;101356.88;7388577;19;20006;-79
2022/06/20 04:25:19;;;;;;;6.90;0.40;;;;;;;14.99;72.56;101361.00;7388296;19;20070;-77
2022/06/20 04:27:52;;;;;;;4.75;0.30;;;;;;;14.97;73.08;101361.19;7387501;19;20174;-78
2022/06/20 04:30:33;;;;;;;11.32;1.00;;;;;;;14.96;73.11;101364.81;7390377;19;20110;-78
2022/06/20 04:33:07;;;;;;;3.42;0.40;;;;;;;14.97;72.87;101357.69;7387572;19;20006;-78
2022/06/20 04:35:41;;;;;;;3.47;0.22;;;;;;;14.94;72.94;101365.97;7388680;19;20336;-79
2022/06/20 04:38:26;;;;;;;3.80;0.40;;;;;;;14.91;72.97;101364.50;7384047;19;20078;-79
2022/06/20 04:41:03;;;;;;;3.92;0.85;;;;;;;14.89;73.55;101363.81;7386131;19;20535;-79
2022/06/20 04:43:46;;;;;;;2.80;0.30;;;;;;;14.94;73.18;101371.28;7387397;19;20034;-79
2022/06/20 04:46:33;;;;;;;;;;;;;;;14.91;73.28;101376.91;7388202;19;20035;-79
2022/06/20 04:49:00;;;;;;;5.03;0.75;;;;;;;14.87;73.21;101381.72;7385682;19;19921;-79
2022/06/20 04:51:34;;;;;;;7.20;0.52;;;;;;;14.87;73.30;101376.44;7386061;19;20325;-78
2022/06/20 04:54:04;;;;;;;3.60;0.30;;;;;;;14.86;73.21;101379.25;7387408;19;20031;-79
2022/06/20 04:56:31;;;;;;;5.45;0.80;;;;;;;14.86;74.52;101389.84;7387617;19;20411;-78
2022/06/20 04:59:03;;;;;;;3.95;0.40;;;;;;;14.86;73.89;101388.03;7388098;19;20587;-77
2022/06/20 05:01:33;;;;;;;4.80;0.40;;;;;;;14.89;73.61;101395.63;7388491;19;20504;-78
2022/06/20 05:04:07;;;;;;;4.20;0.50;;;;;;;14.90;73.15;101397.28;7384147;19;20011;-78
2022/06/20 05:06:36;;;;;;;2.47;0.38;;;;;;;14.94;73.17;101395.94;7384520;19;20101;-79
2022/06/20 05:09:22;;;;;;;4.55;0.40;;;;;;;15.00;72.77;101399.75;7386207;19;20109;-79
2022/06/20 05:12:02;;;;;;;2.53;0.70;;;;;;;15.02;72.48;101395.13;7390437;19;20049;-80
2022/06/20 05:14:49;;;;;;;4.50;0.52;;;;;;;15.01;72.21;101403.25;7387613;19;20363;-78
2022/06/20 05:17:21;;;;;;;3.88;0.40;;;;;;;14.94;72.78;101406.53;7386775;19;20007;-78
2022/06/20 05:19:53;;;;;;;3.78;0.63;;;;;;;14.96;72.78;101406.38;7387032;19;20010;-77
2022/06/20 05:22:29;;;;;;;2.45;0.47;;;;;;;14.91;72.41;101409.53;7384350;19;20406;-77
2022/06/20 05:25:00;;;;;;;3.80;0.57;;;;;;;14.91;72.81;101400.75;7385911;19;20018;-78
2022/06/20 05:27:31;;;;;;;1.73;0.57;;;;;;;14.89;72.88;101416.00;7388222;19;20006;-79
2022/06/20 05:30:14;;;;;;;3.55;0.40;;;;;;;14.94;72.59;101406.53;7388812;19;20201;-78
2022/06/20 05:32:49;;;;;;;8.05;0.57;;;;;;;14.91;72.30;101406.06;7387413;19;20007;-77
2022/06/20 05:35:42;;;;;;;3.33;0.40;;;;;;;14.88;72.72;101415.16;7387636;19;20006;-79
2022/06/20 05:38:36;;;;;;;3.47;0.40;;;;;;;14.88;73.15;101419.66;7384079;19;20066;-79
2022/06/20 05:41:07;;;;;;;6.53;0.40;;;;;;;14.95;72.63;101424.13;7383544;19;20086;-79
2022/06/20 05:43:35;;;;;;;4.72;0.50;;;;;;;14.95;72.12;101412.69;7386925;19;20006;-78
2022/06/20 05:46:10;;;;;;;5.50;0.50;;;;;;;14.96;72.44;101407.22;7387179;19;20461;-81
2022/06/20 05:48:43;;;;;;;6.63;0.93;;;;;;;15.00;72.20;101413.00;7390334;19;20109;-79
2022/06/20 05:51:14;;;;;;;7.45;0.40;;;;;;;15.03;72.24;101420.63;7399520;19;20015;-79
2022/06/20 05:53:43;;;;;;;3.88;0.40;;;;;;;15.04;72.26;101414.31;7400367;19;20427;-79
2022/06/20 05:56:30;;;;;;;1.48;0.45;;;;;;;15.03;72.34;101417.16;7401584;19;20066;-79
2022/06/20 05:58:58;;;;;;;3.78;0.50;;;;;;;15.08;71.75;101422.78;7400505;19;20027;-79
2022/06/20 06:01:30;;;;;;;3.55;0.40;;;;;;;15.10;72.21;101420.78;7399646;19;20090;-78
2022/06/20 06:04:08;;;;;;;4.63;0.30;;;;;;;15.18;71.29;101426.91;7399012;19;20006;-79
2022/06/20 06:06:53;;;;;;;3.15;0.38;;;;;;;15.26;71.50;101426.06;7397703;19;20015;-79
2022/06/20 06:09:46;;;;;;;3.00;0.30;;;;;;;15.24;71.38;101425.41;7397553;19;20006;-79
2022/06/20 06:12:25;;;;;;;4.95;0.35;;;;;;;15.22;70.69;101430.88;7401510;19;20010;-78
2022/06/20 06:15:05;;;;;;;3.97;0.40;;;;;;;15.16;70.66;101431.56;7400117;19;20474;-79
2022/06/20 06:17:41;;;;;;;3.70;0.40;;;;;;;15.06;70.72;101436.19;7399996;19;20463;-78
2022/06/20 06:20:19;;;;;;;5.38;0.40;;;;;;;15.06;71.06;101430.91;7397899;19;20379;-78
2022/06/20 06:22:51;;;;;;;3.08;0.40;;;;;;;15.08;71.32;101436.88;7395983;19;20066;-80
2022/06/20 06:25:29;;;;;;;2.90;0.40;;;;;;;15.11;71.45;101441.81;7398851;19;20050;-79
2022/06/20 06:28:01;;;;;;;3.72;0.38;;;;;;;15.13;71.25;101429.25;7400329;19;20080;-78
2022/06/20 06:30:45;;;;;;;3.95;0.38;;;;;;;15.16;70.85;101442.16;7400459;19;20010;-78
2022/06/20 06:33:22;;;;;;;4.28;0.43;;;;;;;15.21;71.45;101431.88;7399168;19;20027;-78
2022/06/20 06:36:30;;;;;;;6.22;0.45;;;;;;;15.31;71.49;101442.31;7399189;19;20011;-78
2022/06/20 06:39:06;;;;;;;2.80;0.40;;;;;;;15.39;71.26;101432.50;7398254;19;20027;-78
2022/06/20 06:41:38;;;;;;;7.00;0.40;;;;;;;15.44;71.13;101439.13;7396176;19;20575;-77
2022/06/20 06:44:17;;;;;;;5.90;0.45;;;;;;;15.56;70.90;101449.25;7400111;19;20082;-79
2022/06/20 06:46:48;;;;;;;5.40;0.70;;;;;;;15.66;70.69;101438.44;7398303;19;20075;-80
2022/06/20 06:49:28;;;;;;;3.60;0.40;;;;;;;15.74;70.39;101443.72;7397661;19;20481;-79
2022/06/20 06:52:17;;;;;;;11.02;2.15;;;;;;;15.82;70.53;101439.22;7397428;19;20032;-80
2022/06/20 06:55:17;;;;;;;13.18;3.72;;;;;;;15.92;70.01;101435.50;7397307;19;20071;-78
2022/06/20 06:57:49;;;;;;;6.28;0.50;;;;;;;15.97;68.40;101444.63;7397073;19;20461;-80
2022/06/20 07:00:22;;;;;;;4.82;0.30;;;;;;;15.99;68.27;101437.31;7394650;19;20010;-78
2022/06/20 07:02:58;;;;;;;3.50;0.40;;;;;;;15.92;68.04;101444.31;7391107;19;20015;-77
2022/06/20 07:05:32;;;;;;;3.05;0.40;;;;;;;15.93;68.02;101438.00;7389957;19;20010;-77
2022/06/20 07:08:11;;;;;;;3.15;0.50;;;;;;;15.94;68.74;101447.63;7388307;19;20013;-79
2022/06/20 07:10:49;;;;;;;5.20;0.50;;;;;;;15.95;68.71;101437.84;7391290;19;20110;-78
2022/06/20 07:13:32;;;;;;;8.13;0.70;;;;;;;16.00;69.30;101440.81;7390398;19;20010;-77
2022/06/20 07:16:02;;;;;;;7.35;1.25;;;;;;;16.06;69.20;101453.38;7389664;19;20464;-77
2022/06/20 07:18:47;;;;;;;5.28;0.50;;;;;;;16.09;69.36;101450.38;7390766;19;20047;-79
2022/06/20 07:21:18;;;;;;;5.40;0.55;;;;;;;16.13;69.19;101455.16;7387008;19;20007;-78
2022/06/20 07:23:52;;;;;;;3.47;0.30;;;;;;;16.25;66.00;101455.63;7388221;19;20080;-78
2022/06/20 07:26:22;;;;;;;3.63;0.32;;;;;;;16.26;64.50;101454.59;7389290;19;20007;-78
2022/06/20 07:28:55;;;;;;;5.38;0.50;;;;;;;16.26;65.43;101454.59;7390057;19;20070;-78
2022/06/20 07:31:28;;;;;;;4.90;0.60;;;;;;;16.30;65.66;101453.25;7390645;19;20086;-76
2022/06/20 07:33:57;;;;;;;;;;;;;;;16.36;64.78;101457.84;7387747;19;20006;-77
2022/06/20 07:36:28;;;;;;;3.42;0.50;;;;;;;16.39;65.02;101467.31;7387571;19;19926;-78
2022/06/20 07:39:10;;;;;;;2.63;0.50;;;;;;;16.37;65.38;101474.63;7386248;19;20094;-77
2022/06/20 07:42:02;;;;;;;4.97;0.35;;;;;;;16.52;64.18;101470.22;7387784;19;20018;-78
2022/06/20 07:44:48;;;;;;;6.22;0.35;;;;;;;17.09;61.17;101470.66;7387213;19;20050;-77
2022/06/20 07:47:25;;;;;;;5.47;1.30;;;;;;;17.48;59.86;101473.94;7389007;19;20014;-77
2022/06/20 07:50:01;;;;;;;6.25;0.35;;;;;;;17.69;58.37;101477.75;7389402;19;20010;-77
2022/06/20 07:52:38;;;;;;;2.05;0.30;;;;;;;17.68;58.03;101471.59;7388409;19;20404;-78
2022/06/20 07:55:13;;;;;;;7.65;2.20;;;;;;;17.65;57.79;101473.81;7389570;19;20533;-77
2022/06/20 07:57:46;;;;;;;6.03;0.50;;;;;;;17.45;57.32;101474.31;7387122;19;20050;-77
2022/06/20 08:00:20;;;;;;;2.17;0.30;;;;;;;17.31;58.21;101490.25;7390671;19;20549;-78
2022/06/20 08:02:58;;;;;;;3.30;0.32;;;;;;;17.21;59.07;101487.03;7386515;19;20116;-77
2022/06/20 08:05:44;;;;;;;3.13;0.30;;;;;;;17.07;59.22;101475.31;7388489;19;20500;-77
2022/06/20 08:08:20;;;;;;;3.97;0.30;;;;;;;17.04;58.18;101489.00;7388117;19;20073;-78
2022/06/20 08:10:57;;;;;;;1.65;0.30;;;;;;;17.01;58.46;101489.34;7386058;19;20503;-77
2022/06/20 08:13:28;;;;;;;2.25;0.20;;;;;;;16.95;56.38;101484.75;7386833;19;20036;-77
2022/06/20 08:16:08;;;;;;;2.35;0.40;;;;;;;16.91;56.11;101480.78;7389156;19;20376;-77
2022/06/20 08:18:36;;;;;;;1.30;0.30;;;;;;;16.72;55.46;101483.91;7385448;19;20010;-77
2022/06/20 08:21:19;;;;;;;2.53;0.40;;;;;;;16.73;56.16;101477.59;7386354;19;20017;-77
2022/06/20 08:23:52;;;;;;;1.42;0.20;;;;;;;16.77;56.21;101476.22;7386742;19;20024;-77
2022/06/20 08:26:25;;;;;;;2.78;0.30;;;;;;;16.78;56.30;101476.06;7388406;19;20020;-76
2022/06/20 08:28:57;;;;;;;6.05;0.30;;;;;;;16.82;55.49;101469.38;7388428;19;20014;-77
2022/06/20 08:31:37;;;;;;;4.03;0.40;;;;;;;16.89;55.00;101473.00;7389674;19;20010;-78
2022/06/20 08:34:11;;;;;;;1.00;0.32;;;;;;;17.07;56.40;101464.69;7386134;19;20363;-78
2022/06/20 08:36:57;;;;;;;1.98;0.30;;;;;;;17.28;55.27;101466.66;7385307;19;20015;-78
2022/06/20 08:40:00;;;;;;;3.70;0.40;;;;;;;17.43;53.64;101472.84;7384509;19;20630;-78
2022/06/20 08:42:44;;;;;;;2.63;0.28;;;;;;;17.44;54.03;101467.34;7385074;19;20064;-78
2022/06/20 08:45:34;;;;;;;2.20;0.63;;;;;;;17.26;54.29;101461.53;7386105;19;20014;-78
2022/06/20 08:48:39;;;;;;;3.90;0.50;;;;;;;17.18;54.71;101474.06;7386568;19;20026;-77
2022/06/20 08:51:42;;;;;;;1.27;0.30;;;;;;;17.21;54.84;101465.75;7385279;19;20010;-77
2022/06/20 08:54:41;;;;;;;1.98;0.20;;;;;;;17.26;54.93;101479.34;7384703;19;20007;-78
2022/06/20 08:57:33;;;;;;;44.97;18.25;;;;;;;17.30;55.60;101478.78;7384453;19;20392;-77
2022/06/20 09:00:39;;;;;;;4.78;1.30;;;;;;;17.34;56.83;101477.41;7385294;19;20026;-79
2022/06/20 09:03:20;;;;;;;4.72;0.68;;;;;;;17.38;56.50;101489.34;7385030;19;20010;-77
2022/06/20 09:06:24;;;;;;;2.63;0.45;;;;;;;17.41;56.74;101486.34;7386880;19;20010;-77
2022/06/20 09:09:13;;;;;;;2.92;0.40;;;;;;;17.43;56.68;101483.47;7380324;19;20224;-77
2022/06/20 09:12:13;;;;;;;2.85;0.35;;;;;;;17.47;56.97;101482.13;7388177;19;20015;-78
2022/06/20 09:15:03;;;;;;;2.53;0.55;;;;;;;17.53;56.45;101487.53;7387106;19;20010;-77
2022/06/20 09:18:01;;;;;;;3.05;0.50;;;;;;;17.72;55.08;101490.72;7382993;19;20507;-75
2022/06/20 09:20:42;;;;;;;2.65;0.30;;;;;;;17.82;54.77;101494.75;7376624;19;20025;-78
2022/06/20 09:23:27;;;;;;;2.17;0.30;;;;;;;17.85;53.11;101497.03;7375262;19;20010;-77
2022/06/20 09:26:03;;;;;;;2.47;0.35;;;;;;;17.82;52.84;101501.91;7376918;19;20042;-78
2022/06/20 09:28:40;;;;;;;1.20;0.38;;;;;;;17.53;53.16;101494.69;7377454;19;20766;-76
2022/06/20 09:31:27;;;;;;;4.38;0.60;;;;;;;17.56;53.87;101504.16;7379295;19;20014;-77
2022/06/20 09:34:14;;;;;;;5.90;1.08;;;;;;;17.60;53.67;101493.00;7376710;19;20010;-77
2022/06/20 09:36:52;;;;;;;3.72;1.25;;;;;;;17.71;53.77;101492.53;7376285;19;20117;-77
2022/06/20 09:39:29;;;;;;;4.25;0.45;;;;;;;17.81;53.42;101481.63;7379495;19;20531;-77
2022/06/20 09:41:57;;;;;;;2.20;0.57;;;;;;;17.92;53.82;101486.50;7378476;19;20022;-78
2022/06/20 09:44:37;;;;;;;4.97;0.40;;;;;;;18.09;52.84;101493.25;7379367;19;20011;-76
2022/06/20 09:47:26;;;;;;;4.05;0.60;;;;;;;18.18;52.98;101497.50;7379015;19;20420;-75
2022/06/20 09:50:14;;;;;;;2.15;0.40;;;;;;;18.29;50.71;101512.97;7378784;19;20014;-76
2022/06/20 09:52:52;;;;;;;4.38;0.98;;;;;;;18.18;50.72;101489.50;7376380;19;20018;-77
2022/06/20 09:55:47;;;;;;;2.25;0.50;;;;;;;18.21;50.78;101490.94;7379820;19;20398;-78
2022/06/20 09:58:19;;;;;;;3.65;0.40;;;;;;;18.38;50.25;101495.91;7365544;19;20026;-77
2022/06/20 10:00:58;;;;;;;3.58;0.40;;;;;;;18.49;50.46;101499.09;7374911;19;20017;-78
2022/06/20 10:03:40;;;;;;;3.80;0.50;;;;;;;18.62;50.56;101502.75;7369113;19;20025;-76
2022/06/20 10:06:25;;;;;;;3.78;0.43;;;;;;;18.74;49.66;101500.41;7378185;19;20029;-78
2022/06/20 10:09:22;;;;;;;1.67;0.30;;;;;;;18.81;49.94;101498.63;7379009;19;20006;-78
2022/06/20 10:11:55;;;;;;;3.47;0.60;;;;;;;18.80;49.73;101507.63;7379325;19;20014;-78
2022/06/20 10:14:56;;;;;;;2.40;0.30;;;;;;;18.68;48.58;101503.84;7381641;19;20029;-78
2022/06/20 10:17:30;;;;;;;3.05;0.40;;;;;;;18.70;49.53;101507.13;7376340;19;20006;-77
2022/06/20 10:20:24;;;;;;;2.83;0.50;;;;;;;18.83;49.50;101512.59;7382407;19;20046;-78
2022/06/20 10:23:21;;;;;;;3.85;0.40;;;;;;;18.95;48.79;101508.41;7379432;19;20441;-77
2022/06/20 10:25:52;;;;;;;1.25;0.35;;;;;;;19.01;48.74;101504.97;7380610;19;20424;-77
2022/06/20 10:28:28;;;;;;;3.80;0.40;;;;;;;19.11;48.88;101505.47;7377311;19;20377;-77
2022/06/20 10:31:08;;;;;;;1.35;0.30;;;;;;;19.17;48.33;101501.22;7384851;19;20046;-77
2022/06/20 10:33:59;;;;;;;2.50;0.45;;;;;;;19.31;47.71;101515.50;7383559;19;20482;-78
2022/06/20 10:36:52;;;;;;;2.15;0.40;;;;;;;19.37;47.02;101510.22;7383346;19;20035;-77
2022/06/20 10:39:37;;;;;;;2.95;0.30;;;;;;;19.40;47.36;101501.81;7387869;19;20139;-76
2022/06/20 10:42:04;;;;;;;2.75;0.55;;;;;;;19.50;48.08;101517.53;7389031;19;20010;-77
2022/06/20 10:44:40;;;;;;;3.30;0.57;;;;;;;19.58;48.07;101506.72;7391241;19;20011;-76
2022/06/20 10:47:23;;;;;;;4.60;0.47;;;;;;;19.72;46.04;101504.94;7392788;19;20010;-78
2022/06/20 10:50:13;;;;;;;2.63;0.50;;;;;;;19.73;46.58;101503.94;7391281;19;20479;-77
2022/06/20 10:53:00;;;;;;;3.38;0.30;;;;;;;19.76;47.00;101493.66;7387058;19;20021;-79
2022/06/20 10:56:00;;;;;;;4.45;0.30;;;;;;;19.81;46.91;101496.56;7359175;19;20025;-78
2022/06/20 10:58:36;;;;;;;2.65;0.40;;;;;;;19.87;46.58;101511.81;7379147;19;20030;-78
2022/06/20 11:01:33;;;;;;;4.68;0.47;;;;;;;19.88;47.04;101499.28;7381904;19;20180;-78
2022/06/20 11:04:19;;;;;;;6.78;0.73;;;;;;;19.94;46.25;101514.53;7378664;19;20343;-78
2022/06/20 11:07:05;;;;;;;5.95;0.57;;;;;;;19.94;46.22;101503.84;7381714;19;20019;-78
2022/06/20 11:10:16;;;;;;;3.88;0.40;;;;;;;19.94;46.69;101510.03;7385224;19;20002;-79
2022/06/20 11:13:01;;;;;;;5.35;0.50;;;;;;;19.95;47.25;101514.34;7387633;19;20006;-78
2022/06/20 11:15:48;;;;;;;4.72;0.40;;;;;;;19.91;47.02;101510.41;7386243;19;20031;-78
2022/06/20 11:18:27;;;;;;;4.47;0.40;;;;;;;19.82;47.67;101506.25;7388406;19;20010;-79
2022/06/20 11:21:05;;;;;;;4.22;0.50;;;;;;;19.74;47.53;101503.72;7383237;19;20014;-78
2022/06/20 11:23:52;;;;;;;3.35;0.55;;;;;;;19.67;48.49;101510.03;7384966;19;20106;-78
2022/06/20 11:26:43;;;;;;;3.10;0.50;;;;;;;19.69;48.11;101508.84;7385738;19;20628;-78
2022/06/20 11:29:13;;;;;;;3.20;0.43;;;;;;;19.69;48.15;101519.53;7382476;19;20041;-78
2022/06/20 11:31:53;;;;;;;3.80;0.50;;;;;;;19.75;48.19;101513.41;7385592;19;20042;-77
2022/06/20 11:34:39;;;;;;;3.40;0.60;;;;;;;19.72;48.77;101515.63;7384284;19;20313;-78
2022/06/20 11:37:24;;;;;;;4.13;0.77;;;;;;;19.75;49.02;101509.91;7381253;19;20078;-76
2022/06/20 11:40:28;;;;;;;3.78;0.40;;;;;;;19.89;47.63;101514.31;7384601;19;20022;-78
2022/06/20 11:43:17;;;;;;;4.15;0.60;;;;;;;19.91;48.06;101514.94;7385695;19;20078;-78
2022/06/20 11:45:56;;;;;;;3.15;0.57;;;;;;;19.94;47.31;101519.88;7388743;19;20073;-79
2022/06/20 11:48:50;;;;;;;3.50;0.50;;;;;;;20.02;46.90;101504.50;7387064;19;20011;-79
2022/06/20 11:51:37;;;;;;;3.60;0.55;;;;;;;19.98;47.10;101499.75;7383990;19;20506;-78
2022/06/20 11:54:06;;;;;;;5.07;0.52;;;;;;;19.97;47.54;101508.78;7388379;19;20042;-78
2022/06/20 11:56:46;;;;;;;5.55;0.68;;;;;;;19.95;47.84;101501.00;7387293;19;20011;-78
2022/06/20 11:59:21;;;;;;;5.55;0.65;;;;;;;19.95;48.05;101503.66;7384601;19;20731;-76
2022/06/20 12:02:16;;;;;;;3.70;0.52;;;;;;;20.02;47.52;101498.31;7387973;19;20561;-77
2022/06/20 12:04:55;;;;;;;4.88;0.60;;;;;;;20.05;48.03;101505.97;7386951;19;20121;-77
2022/06/20 12:08:16;;;;;;;3.25;0.60;;;;;;;20.07;47.12;101495.88;7383393;19;20284;-77
2022/06/20 12:10:53;;;;;;;4.00;0.63;;;;;;;20.05;46.66;101495.28;7382883;19;20046;-78
2022/06/20 12:13:59;;;;;;;2.40;0.95;;;;;;;20.06;47.26;101504.94;7382896;19;20017;-77
2022/06/20 12:16:46;;;;;;;2.38;0.38;;;;;;;20.08;46.82;101497.53;7389750;19;20475;-77
2022/06/20 12:25:05;;;;;;;3.33;1.23;;;;;;;20.10;47.92;101486.66;7386039;19;20018;-76
2022/06/20 12:27:32;;;;;;;3.03;0.50;;;;;;;20.19;47.27;101490.81;7383434;19;20011;-77
2022/06/20 12:30:16;;;;;;;3.20;0.60;;;;;;;20.21;47.16;101484.25;7385401;19;20014;-76
2022/06/20 12:32:46;;;;;;;6.35;0.50;;;;;;;20.22;47.02;101485.06;7383019;19;20074;-77